sensor_id;sensor_type;location;lat;lon;timestamp;P1;durP1;ratioP1;P2;durP2;ratioP2
65658;SDS011;60181;53.258;6.932;2023-04-03T00:03:33;0.80;;;0.70;;
65658;SDS011;60181;53.258;6.932;2023-04-03T00:07:37;1.60;;;0.60;;
65658;SDS011;60181;53.258;6.932;2023-04-03T00:11:41;1.60;;;0.60;;
65658;SDS011;60181;53.258;6.932;2023-04-03T00:15:45;1.00;;;0.60;;
65658;SDS011;60181;53.258;6.932;2023-04-03T00:19:49;1.00;;;0.60;;
65658;SDS011;60181;53.258;6.932;2023-04-03T00:23:53;1.00;;;0.60;;
65658;SDS011;60181;53.258;6.932;2023-04-03T00:27:57;1.40;;;0.70;;
65658;SDS011;60181;53.258;6.932;2023-04-03T00:32:01;1.40;;;0.70;;
65658;SDS011;60181;53.258;6.932;2023-04-03T00:36:09;1.30;;;0.80;;
65658;SDS011;60181;53.258;6.932;2023-04-03T00:40:09;1.30;;;0.80;;
65658;SDS011;60181;53.258;6.932;2023-04-03T00:52:23;1.90;;;0.80;;
65658;SDS011;60181;53.258;6.932;2023-04-03T00:56:25;1.70;;;0.60;;
65658;SDS011;60181;53.258;6.932;2023-04-03T01:00:29;1.70;;;0.60;;
65658;SDS011;60181;53.258;6.932;2023-04-03T01:04:37;1.70;;;0.60;;
65658;SDS011;60181;53.258;6.932;2023-04-03T01:08:37;1.50;;;0.80;;
65658;SDS011;60181;53.258;6.932;2023-04-03T01:12:42;1.50;;;0.80;;
65658;SDS011;60181;53.258;6.932;2023-04-03T01:16:54;1.50;;;0.90;;
65658;SDS011;60181;53.258;6.932;2023-04-03T01:21:01;1.50;;;0.90;;
65658;SDS011;60181;53.258;6.932;2023-04-03T01:24:53;1.30;;;0.60;;
65658;SDS011;60181;53.258;6.932;2023-04-03T01:28:58;1.30;;;0.60;;
65658;SDS011;60181;53.258;6.932;2023-04-03T01:33:01;1.30;;;0.60;;
65658;SDS011;60181;53.258;6.932;2023-04-03T01:37:05;1.40;;;0.70;;
65658;SDS011;60181;53.258;6.932;2023-04-03T01:41:09;1.40;;;0.70;;
65658;SDS011;60181;53.258;6.932;2023-04-03T01:45:13;2.00;;;0.70;;
65658;SDS011;60181;53.258;6.932;2023-04-03T01:49:17;2.00;;;0.70;;
65658;SDS011;60181;53.258;6.932;2023-04-03T01:53:21;2.00;;;0.70;;
65658;SDS011;60181;53.258;6.932;2023-04-03T01:57:25;1.10;;;0.60;;
65658;SDS011;60181;53.258;6.932;2023-04-03T02:01:29;1.10;;;0.60;;
65658;SDS011;60181;53.258;6.932;2023-04-03T02:05:33;2.00;;;0.70;;
65658;SDS011;60181;53.258;6.932;2023-04-03T02:09:37;2.00;;;0.70;;
65658;SDS011;60181;53.258;6.932;2023-04-03T02:13:41;2.00;;;0.70;;
65658;SDS011;60181;53.258;6.932;2023-04-03T02:17:45;2.10;;;0.70;;
65658;SDS011;60181;53.258;6.932;2023-04-03T02:21:49;2.10;;;0.70;;
65658;SDS011;60181;53.258;6.932;2023-04-03T02:25:53;3.00;;;0.70;;
65658;SDS011;60181;53.258;6.932;2023-04-03T02:29:57;3.00;;;0.70;;
65658;SDS011;60181;53.258;6.932;2023-04-03T02:34:01;3.00;;;0.70;;
65658;SDS011;60181;53.258;6.932;2023-04-03T02:38:05;1.80;;;0.80;;
65658;SDS011;60181;53.258;6.932;2023-04-03T02:42:09;1.80;;;0.80;;
65658;SDS011;60181;53.258;6.932;2023-04-03T02:46:13;1.30;;;0.70;;
65658;SDS011;60181;53.258;6.932;2023-04-03T02:50:17;1.30;;;0.70;;
65658;SDS011;60181;53.258;6.932;2023-04-03T02:54:21;1.30;;;0.70;;
65658;SDS011;60181;53.258;6.932;2023-04-03T02:58:25;1.10;;;0.70;;
65658;SDS011;60181;53.258;6.932;2023-04-03T03:02:29;1.10;;;0.70;;
65658;SDS011;60181;53.258;6.932;2023-04-03T03:06:33;2.50;;;0.80;;
65658;SDS011;60181;53.258;6.932;2023-04-03T03:10:37;2.50;;;0.80;;
65658;SDS011;60181;53.258;6.932;2023-04-03T03:14:41;2.50;;;0.80;;
65658;SDS011;60181;53.258;6.932;2023-04-03T03:18:45;2.10;;;0.80;;
65658;SDS011;60181;53.258;6.932;2023-04-03T03:22:49;2.10;;;0.80;;
65658;SDS011;60181;53.258;6.932;2023-04-03T03:26:53;1.90;;;0.70;;
65658;SDS011;60181;53.258;6.932;2023-04-03T03:30:57;1.90;;;0.70;;
65658;SDS011;60181;53.258;6.932;2023-04-03T03:35:01;3.20;;;0.90;;
65658;SDS011;60181;53.258;6.932;2023-04-03T03:39:05;3.20;;;0.90;;
65658;SDS011;60181;53.258;6.932;2023-04-03T03:43:09;3.20;;;0.90;;
65658;SDS011;60181;53.258;6.932;2023-04-03T03:47:13;1.10;;;0.80;;
65658;SDS011;60181;53.258;6.932;2023-04-03T03:51:17;1.10;;;0.80;;
65658;SDS011;60181;53.258;6.932;2023-04-03T03:55:21;1.70;;;0.70;;
65658;SDS011;60181;53.258;6.932;2023-04-03T03:59:25;1.70;;;0.70;;
65658;SDS011;60181;53.258;6.932;2023-04-03T04:03:29;1.70;;;0.70;;
65658;SDS011;60181;53.258;6.932;2023-04-03T04:07:33;1.50;;;0.80;;
65658;SDS011;60181;53.258;6.932;2023-04-03T04:11:37;1.50;;;0.80;;
65658;SDS011;60181;53.258;6.932;2023-04-03T04:15:41;2.00;;;0.90;;
65658;SDS011;60181;53.258;6.932;2023-04-03T04:19:45;2.00;;;0.90;;
65658;SDS011;60181;53.258;6.932;2023-04-03T04:23:49;2.00;;;0.90;;
65658;SDS011;60181;53.258;6.932;2023-04-03T04:27:53;2.90;;;0.90;;
65658;SDS011;60181;53.258;6.932;2023-04-03T04:31:57;2.90;;;0.90;;
65658;SDS011;60181;53.258;6.932;2023-04-03T04:36:01;2.00;;;0.80;;
65658;SDS011;60181;53.258;6.932;2023-04-03T04:40:05;2.00;;;0.80;;
65658;SDS011;60181;53.258;6.932;2023-04-03T04:44:09;2.00;;;0.80;;
65658;SDS011;60181;53.258;6.932;2023-04-03T04:48:13;1.40;;;0.80;;
65658;SDS011;60181;53.258;6.932;2023-04-03T04:52:17;1.40;;;0.80;;
65658;SDS011;60181;53.258;6.932;2023-04-03T04:56:21;1.60;;;0.80;;
65658;SDS011;60181;53.258;6.932;2023-04-03T05:00:25;1.60;;;0.80;;
65658;SDS011;60181;53.258;6.932;2023-04-03T05:04:29;1.60;;;0.80;;
65658;SDS011;60181;53.258;6.932;2023-04-03T05:08:33;2.00;;;0.90;;
65658;SDS011;60181;53.258;6.932;2023-04-03T05:12:37;2.00;;;0.90;;
65658;SDS011;60181;53.258;6.932;2023-04-03T05:16:41;1.60;;;0.90;;
65658;SDS011;60181;53.258;6.932;2023-04-03T05:20:45;1.60;;;0.90;;
65658;SDS011;60181;53.258;6.932;2023-04-03T05:24:49;2.70;;;1.00;;
65658;SDS011;60181;53.258;6.932;2023-04-03T05:28:53;2.70;;;1.00;;
65658;SDS011;60181;53.258;6.932;2023-04-03T05:32:58;2.70;;;1.00;;
65658;SDS011;60181;53.258;6.932;2023-04-03T05:37:01;2.50;;;0.90;;
65658;SDS011;60181;53.258;6.932;2023-04-03T05:41:05;2.50;;;0.90;;
65658;SDS011;60181;53.258;6.932;2023-04-03T05:45:09;2.50;;;0.90;;
65658;SDS011;60181;53.258;6.932;2023-04-03T05:49:13;2.50;;;0.90;;
65658;SDS011;60181;53.258;6.932;2023-04-03T05:53:18;2.50;;;0.90;;
65658;SDS011;60181;53.258;6.932;2023-04-03T05:57:21;3.40;;;1.00;;
65658;SDS011;60181;53.258;6.932;2023-04-03T06:01:25;3.40;;;1.00;;
65658;SDS011;60181;53.258;6.932;2023-04-03T06:05:29;1.50;;;0.90;;
65658;SDS011;60181;53.258;6.932;2023-04-03T06:09:33;1.50;;;0.90;;
65658;SDS011;60181;53.258;6.932;2023-04-03T06:13:37;1.50;;;0.90;;
65658;SDS011;60181;53.258;6.932;2023-04-03T06:17:41;3.70;;;1.00;;
65658;SDS011;60181;53.258;6.932;2023-04-03T06:21:45;3.70;;;1.00;;
65658;SDS011;60181;53.258;6.932;2023-04-03T06:25:49;2.70;;;0.90;;
65658;SDS011;60181;53.258;6.932;2023-04-03T06:29:53;2.70;;;0.90;;
65658;SDS011;60181;53.258;6.932;2023-04-03T06:33:57;2.70;;;0.90;;
65658;SDS011;60181;53.258;6.932;2023-04-03T06:38:01;1.80;;;0.80;;
65658;SDS011;60181;53.258;6.932;2023-04-03T06:42:05;1.80;;;0.80;;
65658;SDS011;60181;53.258;6.932;2023-04-03T06:46:19;1.60;;;0.80;;
65658;SDS011;60181;53.258;6.932;2023-04-03T06:50:13;1.60;;;0.80;;
65658;SDS011;60181;53.258;6.932;2023-04-03T06:54:17;1.60;;;0.80;;
65658;SDS011;60181;53.258;6.932;2023-04-03T06:58:21;2.70;;;1.00;;
65658;SDS011;60181;53.258;6.932;2023-04-03T07:02:25;2.70;;;1.00;;
65658;SDS011;60181;53.258;6.932;2023-04-03T07:06:29;2.70;;;1.10;;
65658;SDS011;60181;53.258;6.932;2023-04-03T07:10:33;2.70;;;1.10;;
65658;SDS011;60181;53.258;6.932;2023-04-03T07:14:37;2.70;;;1.10;;
65658;SDS011;60181;53.258;6.932;2023-04-03T07:18:40;2.20;;;0.80;;
65658;SDS011;60181;53.258;6.932;2023-04-03T07:22:44;2.20;;;0.80;;
65658;SDS011;60181;53.258;6.932;2023-04-03T07:26:49;2.60;;;0.90;;
65658;SDS011;60181;53.258;6.932;2023-04-03T07:30:53;2.60;;;0.90;;
65658;SDS011;60181;53.258;6.932;2023-04-03T07:34:56;3.00;;;0.90;;
65658;SDS011;60181;53.258;6.932;2023-04-03T07:39:00;3.00;;;0.90;;
65658;SDS011;60181;53.258;6.932;2023-04-03T07:43:05;3.00;;;0.90;;
65658;SDS011;60181;53.258;6.932;2023-04-03T07:47:08;2.40;;;1.00;;
65658;SDS011;60181;53.258;6.932;2023-04-03T07:51:12;2.40;;;1.00;;
65658;SDS011;60181;53.258;6.932;2023-04-03T07:55:17;2.70;;;1.00;;
65658;SDS011;60181;53.258;6.932;2023-04-03T07:59:20;2.70;;;1.00;;
65658;SDS011;60181;53.258;6.932;2023-04-03T08:03:24;2.70;;;1.00;;
65658;SDS011;60181;53.258;6.932;2023-04-03T08:07:28;3.00;;;1.00;;
65658;SDS011;60181;53.258;6.932;2023-04-03T08:11:32;3.00;;;1.00;;
65658;SDS011;60181;53.258;6.932;2023-04-03T08:15:36;2.00;;;0.90;;
65658;SDS011;60181;53.258;6.932;2023-04-03T08:19:40;2.00;;;0.90;;
65658;SDS011;60181;53.258;6.932;2023-04-03T08:23:44;2.00;;;0.90;;
65658;SDS011;60181;53.258;6.932;2023-04-03T08:27:48;2.50;;;0.90;;
65658;SDS011;60181;53.258;6.932;2023-04-03T08:31:52;2.50;;;0.90;;
65658;SDS011;60181;53.258;6.932;2023-04-03T08:35:56;2.40;;;1.00;;
65658;SDS011;60181;53.258;6.932;2023-04-03T08:40:00;2.40;;;1.00;;
65658;SDS011;60181;53.258;6.932;2023-04-03T08:44:12;2.40;;;1.00;;
65658;SDS011;60181;53.258;6.932;2023-04-03T08:48:12;1.90;;;1.10;;
65658;SDS011;60181;53.258;6.932;2023-04-03T08:52:14;1.90;;;1.10;;
65658;SDS011;60181;53.258;6.932;2023-04-03T08:56:16;2.00;;;0.90;;
65658;SDS011;60181;53.258;6.932;2023-04-03T09:00:22;2.00;;;0.90;;
65658;SDS011;60181;53.258;6.932;2023-04-03T09:04:24;2.00;;;0.90;;
65658;SDS011;60181;53.258;6.932;2023-04-03T09:12:42;2.60;;;1.00;;
65658;SDS011;60181;53.258;6.932;2023-04-03T09:20:57;2.30;;;1.00;;
65658;SDS011;60181;53.258;6.932;2023-04-03T09:24:49;2.30;;;1.00;;
65658;SDS011;60181;53.258;6.932;2023-04-03T09:28:48;1.90;;;1.00;;
65658;SDS011;60181;53.258;6.932;2023-04-03T09:32:53;1.90;;;1.00;;
65658;SDS011;60181;53.258;6.932;2023-04-03T09:37:00;2.20;;;0.90;;
65658;SDS011;60181;53.258;6.932;2023-04-03T09:41:05;2.20;;;0.90;;
65658;SDS011;60181;53.258;6.932;2023-04-03T09:45:05;1.50;;;1.00;;
65658;SDS011;60181;53.258;6.932;2023-04-03T09:49:08;1.50;;;1.00;;
65658;SDS011;60181;53.258;6.932;2023-04-03T09:53:25;1.50;;;1.00;;
65658;SDS011;60181;53.258;6.932;2023-04-03T09:57:16;2.40;;;0.90;;
65658;SDS011;60181;53.258;6.932;2023-04-03T10:01:22;2.40;;;0.90;;
65658;SDS011;60181;53.258;6.932;2023-04-03T10:05:26;1.70;;;0.80;;
65658;SDS011;60181;53.258;6.932;2023-04-03T10:09:29;1.70;;;0.80;;
65658;SDS011;60181;53.258;6.932;2023-04-03T10:13:32;1.70;;;0.80;;
65658;SDS011;60181;53.258;6.932;2023-04-03T10:17:47;1.90;;;0.70;;
65658;SDS011;60181;53.258;6.932;2023-04-03T10:29:51;2.50;;;0.80;;
65658;SDS011;60181;53.258;6.932;2023-04-03T10:33:54;2.50;;;0.80;;
65658;SDS011;60181;53.258;6.932;2023-04-03T10:42:05;2.00;;;0.80;;
65658;SDS011;60181;53.258;6.932;2023-04-03T10:46:15;1.70;;;0.80;;
65658;SDS011;60181;53.258;6.932;2023-04-03T10:54:14;1.70;;;0.80;;
65658;SDS011;60181;53.258;6.932;2023-04-03T10:58:21;1.20;;;0.80;;
65658;SDS011;60181;53.258;6.932;2023-04-03T11:02:27;1.20;;;0.80;;
65658;SDS011;60181;53.258;6.932;2023-04-03T11:06:25;2.40;;;0.90;;
65658;SDS011;60181;53.258;6.932;2023-04-03T11:10:41;2.40;;;0.90;;
65658;SDS011;60181;53.258;6.932;2023-04-03T11:14:33;2.40;;;0.90;;
65658;SDS011;60181;53.258;6.932;2023-04-03T11:18:39;2.90;;;0.90;;
65658;SDS011;60181;53.258;6.932;2023-04-03T11:22:43;2.90;;;0.90;;
65658;SDS011;60181;53.258;6.932;2023-04-03T11:26:44;2.60;;;0.80;;
65658;SDS011;60181;53.258;6.932;2023-04-03T11:30:54;2.60;;;0.80;;
65658;SDS011;60181;53.258;6.932;2023-04-03T11:34:53;2.20;;;0.80;;
65658;SDS011;60181;53.258;6.932;2023-04-03T11:38:57;2.20;;;0.80;;
65658;SDS011;60181;53.258;6.932;2023-04-03T11:43:07;2.20;;;0.80;;
65658;SDS011;60181;53.258;6.932;2023-04-03T11:47:05;1.70;;;0.70;;
65658;SDS011;60181;53.258;6.932;2023-04-03T11:59:19;2.40;;;0.90;;
65658;SDS011;60181;53.258;6.932;2023-04-03T12:07:25;2.40;;;0.80;;
65658;SDS011;60181;53.258;6.932;2023-04-03T12:11:29;2.40;;;0.80;;
65658;SDS011;60181;53.258;6.932;2023-04-03T12:15:47;1.10;;;0.60;;
65658;SDS011;60181;53.258;6.932;2023-04-03T12:19:36;1.10;;;0.60;;
65658;SDS011;60181;53.258;6.932;2023-04-03T12:27:44;1.50;;;0.80;;
65658;SDS011;60181;53.258;6.932;2023-04-03T12:36:06;2.80;;;0.70;;
65658;SDS011;60181;53.258;6.932;2023-04-03T12:44:09;2.80;;;0.70;;
65658;SDS011;60181;53.258;6.932;2023-04-03T12:48:06;1.00;;;0.70;;
65658;SDS011;60181;53.258;6.932;2023-04-03T12:52:31;1.00;;;0.70;;
65658;SDS011;60181;53.258;6.932;2023-04-03T12:56:25;2.50;;;0.70;;
65658;SDS011;60181;53.258;6.932;2023-04-03T13:00:27;2.50;;;0.70;;
65658;SDS011;60181;53.258;6.932;2023-04-03T13:04:20;2.50;;;0.70;;
65658;SDS011;60181;53.258;6.932;2023-04-03T13:08:24;2.40;;;0.80;;
65658;SDS011;60181;53.258;6.932;2023-04-03T13:12:28;2.40;;;0.80;;
65658;SDS011;60181;53.258;6.932;2023-04-03T13:16:32;1.80;;;0.80;;
65658;SDS011;60181;53.258;6.932;2023-04-03T13:20:36;1.80;;;0.80;;
65658;SDS011;60181;53.258;6.932;2023-04-03T13:24:40;1.80;;;0.80;;
65658;SDS011;60181;53.258;6.932;2023-04-03T13:28:44;1.30;;;0.70;;
65658;SDS011;60181;53.258;6.932;2023-04-03T13:32:48;1.30;;;0.70;;
65658;SDS011;60181;53.258;6.932;2023-04-03T13:36:56;1.20;;;0.70;;
65658;SDS011;60181;53.258;6.932;2023-04-03T13:41:21;1.20;;;0.70;;
65658;SDS011;60181;53.258;6.932;2023-04-03T13:49:16;1.20;;;0.90;;
65658;SDS011;60181;53.258;6.932;2023-04-03T13:53:11;1.20;;;0.90;;
65658;SDS011;60181;53.258;6.932;2023-04-03T13:57:13;1.00;;;0.70;;
65658;SDS011;60181;53.258;6.932;2023-04-03T14:01:19;1.00;;;0.70;;
65658;SDS011;60181;53.258;6.932;2023-04-03T14:05:20;1.50;;;0.70;;
65658;SDS011;60181;53.258;6.932;2023-04-03T14:09:25;1.50;;;0.70;;
65658;SDS011;60181;53.258;6.932;2023-04-03T14:13:29;1.50;;;0.70;;
65658;SDS011;60181;53.258;6.932;2023-04-03T14:17:32;2.00;;;0.70;;
65658;SDS011;60181;53.258;6.932;2023-04-03T14:21:36;2.00;;;0.70;;
65658;SDS011;60181;53.258;6.932;2023-04-03T14:25:40;1.60;;;0.70;;
65658;SDS011;60181;53.258;6.932;2023-04-03T14:29:44;1.60;;;0.70;;
65658;SDS011;60181;53.258;6.932;2023-04-03T14:33:48;1.60;;;0.70;;
65658;SDS011;60181;53.258;6.932;2023-04-03T14:37:53;2.10;;;0.80;;
65658;SDS011;60181;53.258;6.932;2023-04-03T14:41:56;2.10;;;0.80;;
65658;SDS011;60181;53.258;6.932;2023-04-03T14:46:00;0.90;;;0.70;;
65658;SDS011;60181;53.258;6.932;2023-04-03T14:50:04;0.90;;;0.70;;
65658;SDS011;60181;53.258;6.932;2023-04-03T14:54:14;0.90;;;0.70;;
65658;SDS011;60181;53.258;6.932;2023-04-03T14:58:16;2.10;;;0.60;;
65658;SDS011;60181;53.258;6.932;2023-04-03T15:06:20;2.30;;;0.70;;
65658;SDS011;60181;53.258;6.932;2023-04-03T15:10:25;2.30;;;0.70;;
65658;SDS011;60181;53.258;6.932;2023-04-03T15:14:28;2.30;;;0.70;;
65658;SDS011;60181;53.258;6.932;2023-04-03T15:18:34;1.50;;;0.70;;
65658;SDS011;60181;53.258;6.932;2023-04-03T15:22:36;1.50;;;0.70;;
65658;SDS011;60181;53.258;6.932;2023-04-03T15:26:40;1.50;;;0.70;;
65658;SDS011;60181;53.258;6.932;2023-04-03T15:30:44;1.50;;;0.70;;
65658;SDS011;60181;53.258;6.932;2023-04-03T15:34:48;1.50;;;0.70;;
65658;SDS011;60181;53.258;6.932;2023-04-03T15:38:52;1.50;;;0.80;;
65658;SDS011;60181;53.258;6.932;2023-04-03T15:42:56;1.50;;;0.80;;
65658;SDS011;60181;53.258;6.932;2023-04-03T15:47:00;1.60;;;0.70;;
65658;SDS011;60181;53.258;6.932;2023-04-03T15:51:05;1.60;;;0.70;;
65658;SDS011;60181;53.258;6.932;2023-04-03T15:55:08;1.50;;;0.80;;
65658;SDS011;60181;53.258;6.932;2023-04-03T15:59:12;1.50;;;0.80;;
65658;SDS011;60181;53.258;6.932;2023-04-03T16:03:17;1.50;;;0.80;;
65658;SDS011;60181;53.258;6.932;2023-04-03T16:07:20;1.50;;;0.80;;
65658;SDS011;60181;53.258;6.932;2023-04-03T16:11:24;1.50;;;0.80;;
65658;SDS011;60181;53.258;6.932;2023-04-03T16:15:28;1.90;;;0.80;;
65658;SDS011;60181;53.258;6.932;2023-04-03T16:19:32;1.90;;;0.80;;
65658;SDS011;60181;53.258;6.932;2023-04-03T16:23:36;1.90;;;0.80;;
65658;SDS011;60181;53.258;6.932;2023-04-03T16:27:40;2.20;;;0.60;;
65658;SDS011;60181;53.258;6.932;2023-04-03T16:31:44;2.20;;;0.60;;
65658;SDS011;60181;53.258;6.932;2023-04-03T16:35:48;3.00;;;0.80;;
65658;SDS011;60181;53.258;6.932;2023-04-03T16:39:52;3.00;;;0.80;;
65658;SDS011;60181;53.258;6.932;2023-04-03T16:43:56;3.00;;;0.80;;
65658;SDS011;60181;53.258;6.932;2023-04-03T16:48:00;2.10;;;0.70;;
65658;SDS011;60181;53.258;6.932;2023-04-03T16:52:04;2.10;;;0.70;;
65658;SDS011;60181;53.258;6.932;2023-04-03T16:56:08;2.10;;;0.70;;
65658;SDS011;60181;53.258;6.932;2023-04-03T17:00:12;2.10;;;0.70;;
65658;SDS011;60181;53.258;6.932;2023-04-03T17:04:16;2.10;;;0.70;;
65658;SDS011;60181;53.258;6.932;2023-04-03T17:08:20;1.20;;;0.60;;
65658;SDS011;60181;53.258;6.932;2023-04-03T17:12:24;1.20;;;0.60;;
65658;SDS011;60181;53.258;6.932;2023-04-03T17:16:28;1.50;;;0.60;;
65658;SDS011;60181;53.258;6.932;2023-04-03T17:20:32;1.50;;;0.60;;
65658;SDS011;60181;53.258;6.932;2023-04-03T17:24:36;1.50;;;0.60;;
65658;SDS011;60181;53.258;6.932;2023-04-03T17:28:40;1.60;;;0.70;;
65658;SDS011;60181;53.258;6.932;2023-04-03T17:32:44;1.60;;;0.70;;
65658;SDS011;60181;53.258;6.932;2023-04-03T17:36:48;1.10;;;0.70;;
65658;SDS011;60181;53.258;6.932;2023-04-03T17:40:55;1.10;;;0.70;;
65658;SDS011;60181;53.258;6.932;2023-04-03T17:44:56;1.70;;;0.60;;
65658;SDS011;60181;53.258;6.932;2023-04-03T17:49:00;1.70;;;0.60;;
65658;SDS011;60181;53.258;6.932;2023-04-03T17:53:04;1.70;;;0.60;;
65658;SDS011;60181;53.258;6.932;2023-04-03T17:57:08;0.90;;;0.60;;
65658;SDS011;60181;53.258;6.932;2023-04-03T18:01:16;0.90;;;0.60;;
65658;SDS011;60181;53.258;6.932;2023-04-03T18:05:16;1.80;;;0.70;;
65658;SDS011;60181;53.258;6.932;2023-04-03T18:09:21;1.80;;;0.70;;
65658;SDS011;60181;53.258;6.932;2023-04-03T18:13:24;1.80;;;0.70;;
65658;SDS011;60181;53.258;6.932;2023-04-03T18:17:28;2.30;;;0.70;;
65658;SDS011;60181;53.258;6.932;2023-04-03T18:21:32;2.30;;;0.70;;
65658;SDS011;60181;53.258;6.932;2023-04-03T18:25:36;2.10;;;0.80;;
65658;SDS011;60181;53.258;6.932;2023-04-03T18:29:41;2.10;;;0.80;;
65658;SDS011;60181;53.258;6.932;2023-04-03T18:33:44;2.10;;;0.80;;
65658;SDS011;60181;53.258;6.932;2023-04-03T18:37:48;1.70;;;0.80;;
65658;SDS011;60181;53.258;6.932;2023-04-03T18:41:52;1.70;;;0.80;;
65658;SDS011;60181;53.258;6.932;2023-04-03T18:45:56;1.10;;;0.70;;
65658;SDS011;60181;53.258;6.932;2023-04-03T18:49:59;1.10;;;0.70;;
65658;SDS011;60181;53.258;6.932;2023-04-03T18:54:04;1.10;;;0.70;;
65658;SDS011;60181;53.258;6.932;2023-04-03T18:58:07;1.50;;;0.70;;
65658;SDS011;60181;53.258;6.932;2023-04-03T19:02:12;1.50;;;0.70;;
65658;SDS011;60181;53.258;6.932;2023-04-03T19:06:15;1.40;;;0.70;;
65658;SDS011;60181;53.258;6.932;2023-04-03T19:10:20;1.40;;;0.70;;
65658;SDS011;60181;53.258;6.932;2023-04-03T19:14:23;1.40;;;0.70;;
65658;SDS011;60181;53.258;6.932;2023-04-03T19:18:28;1.10;;;0.70;;
65658;SDS011;60181;53.258;6.932;2023-04-03T19:22:31;1.10;;;0.70;;
65658;SDS011;60181;53.258;6.932;2023-04-03T19:26:36;1.00;;;0.70;;
65658;SDS011;60181;53.258;6.932;2023-04-03T19:30:39;1.00;;;0.70;;
65658;SDS011;60181;53.258;6.932;2023-04-03T19:34:43;1.00;;;0.70;;
65658;SDS011;60181;53.258;6.932;2023-04-03T19:38:47;1.60;;;0.70;;
65658;SDS011;60181;53.258;6.932;2023-04-03T19:42:51;1.60;;;0.70;;
65658;SDS011;60181;53.258;6.932;2023-04-03T19:46:55;1.70;;;0.70;;
65658;SDS011;60181;53.258;6.932;2023-04-03T19:50:59;1.70;;;0.70;;
65658;SDS011;60181;53.258;6.932;2023-04-03T19:55:04;1.60;;;0.70;;
65658;SDS011;60181;53.258;6.932;2023-04-03T19:59:07;1.60;;;0.70;;
65658;SDS011;60181;53.258;6.932;2023-04-03T20:03:11;1.60;;;0.70;;
65658;SDS011;60181;53.258;6.932;2023-04-03T20:07:15;1.30;;;0.60;;
65658;SDS011;60181;53.258;6.932;2023-04-03T20:11:19;1.30;;;0.60;;
65658;SDS011;60181;53.258;6.932;2023-04-03T20:15:23;1.40;;;0.80;;
65658;SDS011;60181;53.258;6.932;2023-04-03T20:19:27;1.40;;;0.80;;
65658;SDS011;60181;53.258;6.932;2023-04-03T20:23:32;1.40;;;0.80;;
65658;SDS011;60181;53.258;6.932;2023-04-03T20:27:35;1.70;;;0.80;;
65658;SDS011;60181;53.258;6.932;2023-04-03T20:31:40;1.70;;;0.80;;
65658;SDS011;60181;53.258;6.932;2023-04-03T20:35:43;1.00;;;0.70;;
65658;SDS011;60181;53.258;6.932;2023-04-03T20:39:47;1.00;;;0.70;;
65658;SDS011;60181;53.258;6.932;2023-04-03T20:43:51;1.00;;;0.70;;
65658;SDS011;60181;53.258;6.932;2023-04-03T20:47:55;1.90;;;0.80;;
65658;SDS011;60181;53.258;6.932;2023-04-03T20:51:59;1.90;;;0.80;;
65658;SDS011;60181;53.258;6.932;2023-04-03T20:56:04;2.60;;;0.80;;
65658;SDS011;60181;53.258;6.932;2023-04-03T21:00:08;2.60;;;0.80;;
65658;SDS011;60181;53.258;6.932;2023-04-03T21:04:15;2.60;;;0.80;;
65658;SDS011;60181;53.258;6.932;2023-04-03T21:20:28;1.10;;;0.70;;
65658;SDS011;60181;53.258;6.932;2023-04-03T21:24:32;1.10;;;0.70;;
65658;SDS011;60181;53.258;6.932;2023-04-03T21:28:36;1.00;;;0.70;;
65658;SDS011;60181;53.258;6.932;2023-04-03T21:32:40;1.00;;;0.70;;
65658;SDS011;60181;53.258;6.932;2023-04-03T21:36:43;1.20;;;0.80;;
65658;SDS011;60181;53.258;6.932;2023-04-03T21:40:47;1.20;;;0.80;;
65658;SDS011;60181;53.258;6.932;2023-04-03T21:44:51;1.20;;;0.80;;
65658;SDS011;60181;53.258;6.932;2023-04-03T21:48:55;1.70;;;0.80;;
65658;SDS011;60181;53.258;6.932;2023-04-03T21:52:59;1.70;;;0.80;;
65658;SDS011;60181;53.258;6.932;2023-04-03T21:57:03;2.00;;;0.80;;
65658;SDS011;60181;53.258;6.932;2023-04-03T22:01:11;2.00;;;0.80;;
65658;SDS011;60181;53.258;6.932;2023-04-03T22:05:11;1.20;;;0.70;;
65658;SDS011;60181;53.258;6.932;2023-04-03T22:09:15;1.20;;;0.70;;
65658;SDS011;60181;53.258;6.932;2023-04-03T22:13:19;1.20;;;0.70;;
65658;SDS011;60181;53.258;6.932;2023-04-03T22:17:23;3.20;;;1.00;;
65658;SDS011;60181;53.258;6.932;2023-04-03T22:21:27;3.20;;;1.00;;
65658;SDS011;60181;53.258;6.932;2023-04-03T22:25:31;1.00;;;0.70;;
65658;SDS011;60181;53.258;6.932;2023-04-03T22:29:35;1.00;;;0.70;;
65658;SDS011;60181;53.258;6.932;2023-04-03T22:33:39;1.00;;;0.70;;
65658;SDS011;60181;53.258;6.932;2023-04-03T22:37:44;1.70;;;0.90;;
65658;SDS011;60181;53.258;6.932;2023-04-03T22:41:47;1.70;;;0.90;;
65658;SDS011;60181;53.258;6.932;2023-04-03T22:45:51;1.60;;;0.80;;
65658;SDS011;60181;53.258;6.932;2023-04-03T22:49:55;1.60;;;0.80;;
65658;SDS011;60181;53.258;6.932;2023-04-03T22:53:59;1.60;;;0.80;;
65658;SDS011;60181;53.258;6.932;2023-04-03T22:58:03;2.40;;;1.00;;
65658;SDS011;60181;53.258;6.932;2023-04-03T23:02:07;2.40;;;1.00;;
65658;SDS011;60181;53.258;6.932;2023-04-03T23:06:11;2.40;;;0.80;;
65658;SDS011;60181;53.258;6.932;2023-04-03T23:10:15;2.40;;;0.80;;
65658;SDS011;60181;53.258;6.932;2023-04-03T23:14:19;2.40;;;0.80;;
65658;SDS011;60181;53.258;6.932;2023-04-03T23:18:25;1.50;;;0.80;;
65658;SDS011;60181;53.258;6.932;2023-04-03T23:22:27;1.50;;;0.80;;
65658;SDS011;60181;53.258;6.932;2023-04-03T23:26:31;1.40;;;0.80;;
65658;SDS011;60181;53.258;6.932;2023-04-03T23:34:39;1.40;;;0.80;;
65658;SDS011;60181;53.258;6.932;2023-04-03T23:38:43;1.70;;;0.80;;
65658;SDS011;60181;53.258;6.932;2023-04-03T23:42:47;1.70;;;0.80;;
65658;SDS011;60181;53.258;6.932;2023-04-03T23:46:51;3.00;;;0.90;;
65658;SDS011;60181;53.258;6.932;2023-04-03T23:50:55;3.00;;;0.90;;
65658;SDS011;60181;53.258;6.932;2023-04-03T23:54:59;1.90;;;0.90;;
65658;SDS011;60181;53.258;6.932;2023-04-03T23:59:03;1.90;;;0.90;;
